Time;durP1;ratioP1;P1;durP2;ratioP2;P2;SDS_P1;SDS_P2;PMS_P1;PMS_P2;Temp;Humidity;BMP_temperature;BMP_pressure;BME280_temperature;BME280_humidity;BME280_pressure;Samples;Min_cycle;Max_cycle;Signal;HPM_P1;HPM_P2
2023/05/29 00:00:47;;;;;;;2.92;2.20;;;;;;;;;;10353063;28;20211;-76
2023/05/29 00:05:49;;;;;;;2.05;1.95;;;;;;;;;;10366617;28;20247;-75
2023/05/29 00:10:50;;;;;;;2.65;1.80;;;;;;;;;;10344639;28;20790;-75
2023/05/29 00:15:51;;;;;;;1.45;1.35;;;;;;;;;;10369797;28;20280;-74
2023/05/29 00:20:52;;;;;;;4.05;2.17;;;;;;;;;;10346160;28;20219;-76
2023/05/29 00:25:53;;;;;;;1.42;1.33;;;;;;;;;;10367205;28;20224;-78
2023/05/29 00:30:54;;;;;;;3.20;1.98;;;;;;;;;;10359959;28;20250;-75
2023/05/29 00:35:56;;;;;;;3.35;1.85;;;;;;;;;;10346226;28;20224;-75
2023/05/29 00:40:58;;;;;;;1.60;1.60;;;;;;;;;;10326124;28;20216;-74
2023/05/29 00:46:00;;;;;;;3.05;1.40;;;;;;;;;;10354876;28;20306;-75
2023/05/29 00:51:01;;;;;;;4.28;1.75;;;;;;;;;;10349865;28;20208;-75
2023/05/29 00:56:02;;;;;;;3.50;1.52;;;;;;;;;;10343282;28;20319;-77
2023/05/29 01:01:03;;;;;;;4.28;2.00;;;;;;;;;;10364025;28;20208;-76
2023/05/29 01:06:04;;;;;;;4.85;1.40;;;;;;;;;;10351499;28;20672;-77
2023/05/29 01:11:08;;;;;;;3.53;2.30;;;;;;;;;;10347647;28;20280;-75
2023/05/29 01:16:21;;;;;;;2.30;2.10;;;;;;;;;;10350536;28;20787;-75
2023/05/29 01:21:43;;;;;;;3.13;1.75;;;;;;;;;;10363934;28;20310;-77
2023/05/29 01:26:58;;;;;;;1.90;1.80;;;;;;;;;;10337892;28;20220;-77
2023/05/29 01:32:01;;;;;;;3.33;2.15;;;;;;;;;;10350372;28;21097;-74
2023/05/29 01:37:02;;;;;;;2.05;1.85;;;;;;;;;;10369445;28;20227;-75
2023/05/29 01:42:05;;;;;;;4.40;1.65;;;;;;;;;;10368992;28;20223;-76
2023/05/29 01:47:09;;;;;;;2.13;2.00;;;;;;;;;;10334312;28;20229;-79
2023/05/29 01:52:10;;;;;;;4.70;1.52;;;;;;;;;;10352569;28;20298;-76
2023/05/29 01:57:12;;;;;;;5.10;1.55;;;;;;;;;;10350856;28;20223;-77
2023/05/29 02:02:13;;;;;;;6.10;2.15;;;;;;;;;;10319366;28;20230;-75
2023/05/29 02:07:15;;;;;;;4.70;1.85;;;;;;;;;;10333100;28;20223;-77
2023/05/29 02:12:16;;;;;;;5.40;1.65;;;;;;;;;;10367372;28;20211;-77
2023/05/29 02:17:19;;;;;;;2.08;1.85;;;;;;;;;;10344337;28;20768;-78
2023/05/29 02:22:21;;;;;;;2.88;2.00;;;;;;;;;;10337499;28;20223;-76
2023/05/29 02:27:22;;;;;;;4.47;1.83;;;;;;;;;;10332265;28;20223;-77
2023/05/29 02:32:23;;;;;;;2.35;1.60;;;;;;;;;;10356702;28;20223;-78
2023/05/29 02:37:25;;;;;;;1.45;1.33;;;;;;;;;;10364372;28;20707;-75
2023/05/29 02:42:26;;;;;;;2.83;1.45;;;;;;;;;;10370751;28;20257;-76
2023/05/29 02:47:27;;;;;;;4.63;1.88;;;;;;;;;;10373556;28;20223;-77
2023/05/29 02:52:30;;;;;;;1.95;1.60;;;;;;;;;;10370448;28;20234;-75
2023/05/29 02:57:31;;;;;;;5.35;2.15;;;;;;;;;;10342977;28;20267;-76
2023/05/29 03:02:34;;;;;;;1.92;1.83;;;;;;;;;;10315115;28;20235;-78
2023/05/29 03:07:36;;;;;;;1.65;1.45;;;;;;;;;;10365336;28;20216;-76
2023/05/29 03:12:38;;;;;;;1.85;1.38;;;;;;;;;;10348152;28;20219;-76
2023/05/29 03:17:39;;;;;;;1.55;1.45;;;;;;;;;;10352289;28;20593;-78
2023/05/29 03:22:45;;;;;;;1.80;1.58;;;;;;;;;;10341370;28;20211;-77
2023/05/29 03:27:46;;;;;;;2.15;1.60;;;;;;;;;;10366828;28;20306;-77
2023/05/29 03:32:52;;;;;;;1.45;1.33;;;;;;;;;;10348864;28;20220;-75
2023/05/29 03:37:58;;;;;;;1.40;1.40;;;;;;;;;;10365984;28;20781;-75
2023/05/29 03:42:59;;;;;;;2.53;1.38;;;;;;;;;;10341752;28;20262;-73
2023/05/29 03:48:00;;;;;;;3.33;2.00;;;;;;;;;;10364555;28;20222;-76
2023/05/29 03:53:01;;;;;;;2.35;1.75;;;;;;;;;;10356235;28;20207;-75
2023/05/29 03:58:03;;;;;;;1.95;1.65;;;;;;;;;;10348750;28;20227;-74
2023/05/29 04:03:05;;;;;;;1.17;1.17;;;;;;;;;;10333513;28;20265;-74
2023/05/29 04:08:08;;;;;;;2.80;1.70;;;;;;;;;;10353253;28;20242;-77
2023/05/29 04:13:09;;;;;;;4.25;1.88;;;;;;;;;;10327493;28;20267;-75
2023/05/29 04:18:10;;;;;;;1.27;1.27;;;;;;;;;;10358487;28;20238;-74
2023/05/29 04:23:12;;;;;;;3.35;1.52;;;;;;;;;;10367405;28;20219;-75
2023/05/29 04:28:13;;;;;;;2.35;1.52;;;;;;;;;;10352599;28;20219;-78
2023/05/29 04:33:15;;;;;;;2.67;1.13;;;;;;;;;;10343408;28;20219;-78
2023/05/29 04:38:24;;;;;;;2.90;1.33;;;;;;;;;;10350817;28;20229;-79
2023/05/29 04:43:27;;;;;;;1.80;1.70;;;;;;;;;;10352069;28;20224;-75
2023/05/29 04:48:42;;;;;;;1.90;1.23;;;;;;;;;;10354779;28;20864;-74
2023/05/29 04:53:44;;;;;;;1.20;1.10;;;;;;;;;;10364778;28;20262;-77
2023/05/29 04:58:46;;;;;;;0.95;0.95;;;;;;;;;;10372681;28;20683;-77
2023/05/29 05:03:48;;;;;;;1.33;1.33;;;;;;;;;;10360891;28;20203;-76
2023/05/29 05:08:49;;;;;;;1.73;1.30;;;;;;;;;;10345607;28;20223;-76
2023/05/29 05:13:50;;;;;;;1.65;1.52;;;;;;;;;;10374812;28;20883;-77
2023/05/29 05:18:53;;;;;;;1.60;1.50;;;;;;;;;;10349856;28;20362;-75
2023/05/29 05:23:54;;;;;;;1.95;1.08;;;;;;;;;;10367963;28;20220;-77
2023/05/29 05:28:55;;;;;;;1.13;1.13;;;;;;;;;;10345438;28;20255;-73
2023/05/29 05:33:57;;;;;;;2.60;1.45;;;;;;;;;;10357798;28;20896;-75
2023/05/29 05:38:58;;;;;;;2.03;1.40;;;;;;;;;;10368411;28;20219;-75
2023/05/29 05:44:00;;;;;;;5.38;2.38;;;;;;;;;;10368085;28;20776;-76
2023/05/29 05:49:11;;;;;;;2.85;2.35;;;;;;;;;;10354953;28;20211;-74
2023/05/29 05:54:14;;;;;;;2.05;1.95;;;;;;;;;;10346294;28;20216;-75
2023/05/29 05:59:16;;;;;;;2.05;1.88;;;;;;;;;;10343771;28;20230;-74
2023/05/29 06:04:18;;;;;;;1.67;1.58;;;;;;;;;;10326030;28;20225;-77
2023/05/29 06:09:20;;;;;;;3.17;1.63;;;;;;;;;;10307786;28;20661;-75
2023/05/29 06:14:21;;;;;;;3.33;1.63;;;;;;;;;;10340882;28;20227;-74
2023/05/29 06:19:22;;;;;;;2.03;1.30;;;;;;;;;;10346316;28;20760;-75
2023/05/29 06:24:31;;;;;;;1.45;1.35;;;;;;;;;;10356919;28;20274;-78
2023/05/29 06:29:33;;;;;;;1.65;1.23;;;;;;;;;;10333504;28;20215;-77
2023/05/29 06:34:34;;;;;;;1.40;1.13;;;;;;;;;;10355320;28;20301;-75
2023/05/29 06:39:35;;;;;;;4.45;1.40;;;;;;;;;;10348934;28;20230;-75
2023/05/29 06:44:36;;;;;;;5.68;1.02;;;;;;;;;;10345261;28;20219;-75
2023/05/29 06:49:37;;;;;;;2.92;1.20;;;;;;;;;;10344327;28;20251;-76
2023/05/29 06:54:40;;;;;;;2.03;1.13;;;;;;;;;;10357583;28;20223;-77
2023/05/29 06:59:41;;;;;;;1.67;1.45;;;;;;;;;;10327025;28;20219;-76
2023/05/29 07:04:44;;;;;;;3.45;1.35;;;;;;;;;;10351499;28;20247;-73
2023/05/29 07:09:45;;;;;;;2.60;1.27;;;;;;;;;;10347758;28;20215;-76
2023/05/29 07:14:48;;;;;;;2.53;1.50;;;;;;;;;;10346198;28;20220;-72
2023/05/29 07:19:50;;;;;;;1.02;1.02;;;;;;;;;;10348604;28;20337;-77
2023/05/29 07:24:51;;;;;;;1.02;1.02;;;;;;;;;;10331676;28;20253;-76
2023/05/29 07:29:52;;;;;;;0.98;0.90;;;;;;;;;;10330991;28;20604;-79
2023/05/29 07:34:55;;;;;;;1.23;1.08;;;;;;;;;;10342903;28;20345;-75
2023/05/29 07:39:56;;;;;;;1.38;1.25;;;;;;;;;;10336932;28;20220;-75
2023/05/29 07:45:16;;;;;;;1.40;1.00;;;;;;;;;;10348653;28;20218;-73
2023/05/29 07:50:18;;;;;;;1.13;1.02;;;;;;;;;;10325537;28;20212;-76
2023/05/29 07:55:19;;;;;;;1.05;0.82;;;;;;;;;;10348238;28;20234;-76
2023/05/29 08:00:21;;;;;;;2.33;1.40;;;;;;;;;;10321634;28;20211;-76
2023/05/29 08:05:22;;;;;;;1.58;1.00;;;;;;;;;;10337198;28;20272;-75
2023/05/29 08:10:24;;;;;;;0.90;0.90;;;;;;;;;;10333498;28;20261;-76
2023/05/29 08:15:26;;;;;;;2.58;1.05;;;;;;;;;;10327460;28;20235;-75
2023/05/29 08:20:27;;;;;;;1.20;0.93;;;;;;;;;;10346555;28;20953;-78
2023/05/29 08:25:28;;;;;;;1.10;1.10;;;;;;;;;;10350193;28;20242;-77
2023/05/29 08:30:29;;;;;;;7.05;0.93;;;;;;;;;;10339631;28;20211;-77
2023/05/29 08:35:31;;;;;;;1.35;0.80;;;;;;;;;;10322314;28;20231;-78
2023/05/29 08:40:32;;;;;;;1.05;0.98;;;;;;;;;;10374932;28;20215;-77
2023/05/29 08:45:35;;;;;;;0.77;0.70;;;;;;;;;;10340104;28;20819;-78
2023/05/29 08:50:36;;;;;;;1.40;0.80;;;;;;;;;;10360050;28;20227;-78
2023/05/29 08:55:37;;;;;;;1.58;0.93;;;;;;;;;;10345208;28;20231;-75
2023/05/29 09:00:38;;;;;;;3.65;1.08;;;;;;;;;;10361974;28;22422;-76
2023/05/29 09:05:41;;;;;;;2.95;1.20;;;;;;;;;;10351683;28;20215;-77
2023/05/29 09:10:43;;;;;;;1.33;1.05;;;;;;;;;;10367439;28;20565;-77
2023/05/29 09:15:44;;;;;;;1.05;0.98;;;;;;;;;;10335695;28;20234;-78
2023/05/29 09:20:45;;;;;;;1.13;0.73;;;;;;;;;;10365169;28;20215;-76
2023/05/29 09:25:52;;;;;;;7.03;0.90;;;;;;;;;;10367722;28;20481;-75
2023/05/29 09:30:53;;;;;;;1.60;0.70;;;;;;;;;;10369881;28;20230;-78
2023/05/29 09:35:54;;;;;;;1.10;0.73;;;;;;;;;;10350317;28;20315;-75
2023/05/29 09:41:00;;;;;;;1.02;0.93;;;;;;;;;;10362158;28;20553;-76
2023/05/29 09:46:01;;;;;;;8.05;0.95;;;;;;;;;;10366217;28;20298;-77
2023/05/29 09:51:03;;;;;;;1.75;0.77;;;;;;;;;;10367366;28;20204;-77
2023/05/29 09:56:05;;;;;;;1.95;0.63;;;;;;;;;;10361454;28;20261;-77
2023/05/29 10:01:06;;;;;;;1.85;0.90;;;;;;;;;;10341058;28;20216;-77
2023/05/29 10:06:09;;;;;;;0.95;0.80;;;;;;;;;;10340825;28;20238;-74
2023/05/29 10:11:15;;;;;;;3.92;0.90;;;;;;;;;;10367648;28;20210;-77
2023/05/29 10:16:19;;;;;;;4.00;0.90;;;;;;;;;;10328427;28;20248;-77
2023/05/29 10:21:21;;;;;;;2.13;0.80;;;;;;;;;;10358822;28;20211;-78
2023/05/29 10:26:26;;;;;;;0.93;0.90;;;;;;;;;;10347623;28;20350;-77
2023/05/29 10:31:46;;;;;;;2.40;0.95;;;;;;;;;;10371698;28;20222;-79
2023/05/29 10:36:56;;;;;;;1.17;1.00;;;;;;;;;;10368728;28;20237;-77
2023/05/29 10:41:59;;;;;;;2.30;1.15;;;;;;;;;;10352834;28;20277;-77
2023/05/29 10:47:00;;;;;;;2.25;0.80;;;;;;;;;;10368215;28;20216;-76
2023/05/29 10:52:04;;;;;;;1.85;0.75;;;;;;;;;;10338683;28;20223;-78
2023/05/29 10:57:09;;;;;;;2.55;1.10;;;;;;;;;;10361291;28;20219;-78
2023/05/29 11:02:10;;;;;;;2.97;1.20;;;;;;;;;;10360374;28;20597;-75
2023/05/29 11:07:30;;;;;;;1.95;0.98;;;;;;;;;;10348571;28;20221;-76
2023/05/29 11:12:35;;;;;;;1.20;0.70;;;;;;;;;;10346574;28;20216;-78
2023/05/29 11:17:39;;;;;;;1.25;0.88;;;;;;;;;;10321508;28;20223;-77
2023/05/29 11:22:43;;;;;;;3.03;1.00;;;;;;;;;;10337491;28;20220;-75
2023/05/29 11:27:45;;;;;;;1.73;1.13;;;;;;;;;;10333964;28;20223;-78
2023/05/29 11:32:47;;;;;;;3.72;1.20;;;;;;;;;;10337959;28;20635;-78
2023/05/29 11:37:50;;;;;;;0.90;0.90;;;;;;;;;;10348854;28;20728;-77
2023/05/29 11:42:51;;;;;;;4.22;1.40;;;;;;;;;;10352146;28;20230;-76
2023/05/29 11:47:59;;;;;;;2.15;2.05;;;;;;;;;;10354485;28;20320;-77
2023/05/29 11:53:00;;;;;;;3.50;2.42;;;;;;;;;;10334391;28;20247;-78
2023/05/29 11:58:02;;;;;;;2.38;1.85;;;;;;;;;;10338441;28;20735;-77
2023/05/29 12:03:07;;;;;;;2.20;2.13;;;;;;;;;;10344897;28;20273;-75
2023/05/29 12:08:10;;;;;;;1.30;1.20;;;;;;;;;;10307853;28;20224;-80
2023/05/29 12:13:11;;;;;;;2.03;1.25;;;;;;;;;;10335250;28;20208;-80
2023/05/29 12:18:12;;;;;;;2.20;1.45;;;;;;;;;;10341946;28;20220;-79
2023/05/29 12:23:13;;;;;;;2.00;1.55;;;;;;;;;;10337720;28;20215;-78
2023/05/29 12:28:20;;;;;;;1.10;1.08;;;;;;;;;;10349095;28;20639;-77
2023/05/29 12:33:43;;;;;;;5.80;0.90;;;;;;;;;;10339445;28;20242;-76
2023/05/29 12:38:51;;;;;;;1.15;1.15;;;;;;;;;;10347128;28;20227;-80
2023/05/29 12:43:59;;;;;;;2.88;1.33;;;;;;;;;;10355134;28;20231;-76
2023/05/29 12:49:11;;;;;;;1.60;1.30;;;;;;;;;;10369106;28;20284;-77
2023/05/29 12:54:16;;;;;;;1.83;1.30;;;;;;;;;;10366018;28;20307;-78
2023/05/29 12:59:17;;;;;;;3.08;1.23;;;;;;;;;;10351905;28;20215;-81
2023/05/29 13:04:18;;;;;;;1.20;1.10;;;;;;;;;;10354874;28;20220;-81
2023/05/29 13:09:19;;;;;;;1.48;1.10;;;;;;;;;;10363880;28;20204;-77
2023/05/29 13:14:20;;;;;;;1.17;1.17;;;;;;;;;;10341021;28;20230;-76
2023/05/29 13:19:21;;;;;;;1.63;0.90;;;;;;;;;;10359048;28;20250;-75
2023/05/29 13:24:22;;;;;;;0.95;0.82;;;;;;;;;;10353310;28;20246;-77
2023/05/29 13:29:23;;;;;;;1.42;1.08;;;;;;;;;;10357264;28;20222;-77
2023/05/29 13:34:28;;;;;;;1.45;0.70;;;;;;;;;;10364445;28;20867;-76
2023/05/29 13:39:29;;;;;;;0.90;0.90;;;;;;;;;;10330789;28;20223;-77
2023/05/29 13:44:30;;;;;;;1.75;1.02;;;;;;;;;;10379043;28;20226;-78
2023/05/29 13:49:31;;;;;;;2.47;0.90;;;;;;;;;;10331553;28;20572;-78
2023/05/29 13:54:35;;;;;;;3.13;0.88;;;;;;;;;;10372124;28;20230;-78
2023/05/29 13:59:36;;;;;;;1.38;1.00;;;;;;;;;;10363002;28;20219;-79
2023/05/29 14:04:38;;;;;;;1.65;1.02;;;;;;;;;;10343835;28;20259;-76
2023/05/29 14:09:39;;;;;;;2.35;1.30;;;;;;;;;;10342441;28;20220;-76
2023/05/29 14:14:40;;;;;;;3.47;0.95;;;;;;;;;;10375226;28;20254;-76
2023/05/29 14:19:41;;;;;;;1.88;0.80;;;;;;;;;;10356264;28;20277;-77
2023/05/29 14:24:42;;;;;;;1.63;0.88;;;;;;;;;;10374386;28;21027;-77
2023/05/29 14:29:45;;;;;;;0.85;0.82;;;;;;;;;;10327205;28;20218;-75
2023/05/29 14:34:46;;;;;;;5.78;0.90;;;;;;;;;;10322923;28;20230;-75
2023/05/29 14:39:47;;;;;;;1.58;0.82;;;;;;;;;;10347387;28;20227;-73
2023/05/29 14:44:48;;;;;;;1.45;0.70;;;;;;;;;;10356346;28;20318;-75
2023/05/29 14:49:49;;;;;;;1.05;0.70;;;;;;;;;;10327662;28;23828;-76
2023/05/29 14:54:50;;;;;;;1.20;0.95;;;;;;;;;;10345809;28;20234;-75
2023/05/29 14:59:51;;;;;;;1.88;0.77;;;;;;;;;;10345177;28;20327;-74
2023/05/29 15:04:53;;;;;;;2.25;0.80;;;;;;;;;;10356466;28;22195;-77
2023/05/29 15:09:54;;;;;;;1.85;0.93;;;;;;;;;;10331014;28;20224;-72
2023/05/29 15:14:55;;;;;;;3.00;0.90;;;;;;;;;;10356708;28;20238;-75
2023/05/29 15:19:57;;;;;;;0.70;0.70;;;;;;;;;;10357362;28;20219;-73
2023/05/29 15:24:58;;;;;;;0.80;0.80;;;;;;;;;;10359030;28;20334;-76
2023/05/29 15:30:12;;;;;;;2.05;1.00;;;;;;;;;;10346416;28;20239;-76
2023/05/29 15:35:14;;;;;;;0.60;0.60;;;;;;;;;;10345331;28;20234;-73
2023/05/29 15:40:15;;;;;;;1.23;0.90;;;;;;;;;;10318804;28;21000;-73
2023/05/29 15:45:16;;;;;;;0.70;0.70;;;;;;;;;;10333739;28;21133;-77
2023/05/29 15:50:17;;;;;;;1.88;0.55;;;;;;;;;;10344830;28;20210;-76
2023/05/29 15:55:18;;;;;;;1.45;0.80;;;;;;;;;;10340665;28;20746;-75
2023/05/29 16:00:20;;;;;;;1.35;0.88;;;;;;;;;;10319100;28;20199;-75
2023/05/29 16:05:21;;;;;;;2.63;0.88;;;;;;;;;;10337065;28;20795;-77
2023/05/29 16:10:22;;;;;;;1.08;0.70;;;;;;;;;;10339139;28;20211;-74
2023/05/29 16:15:24;;;;;;;1.27;0.73;;;;;;;;;;10330798;28;20231;-76
2023/05/29 16:20:25;;;;;;;1.55;0.70;;;;;;;;;;10353044;28;20289;-76
2023/05/29 16:25:26;;;;;;;0.95;0.73;;;;;;;;;;10312170;28;21047;-76
2023/05/29 16:30:27;;;;;;;1.70;0.60;;;;;;;;;;10337887;28;20219;-76
2023/05/29 16:35:28;;;;;;;1.00;0.40;;;;;;;;;;10340117;28;20216;-75
2023/05/29 16:40:29;;;;;;;0.60;0.60;;;;;;;;;;10335920;28;20616;-73
2023/05/29 16:45:30;;;;;;;1.05;0.63;;;;;;;;;;10335818;28;20334;-74
2023/05/29 16:50:31;;;;;;;0.68;0.47;;;;;;;;;;10337388;28;20224;-80
2023/05/29 16:55:32;;;;;;;1.40;0.82;;;;;;;;;;10343671;28;20219;-76
2023/05/29 17:00:33;;;;;;;2.08;0.60;;;;;;;;;;10348746;28;20216;-75
2023/05/29 17:05:34;;;;;;;2.70;0.70;;;;;;;;;;10366014;28;21204;-74
2023/05/29 17:10:35;;;;;;;1.23;0.68;;;;;;;;;;10361179;28;20224;-75
2023/05/29 17:15:36;;;;;;;1.17;0.60;;;;;;;;;;10340722;28;20235;-77
2023/05/29 17:20:38;;;;;;;1.35;0.70;;;;;;;;;;10327648;28;20228;-76
2023/05/29 17:25:39;;;;;;;0.98;0.70;;;;;;;;;;10335069;28;20310;-75
2023/05/29 17:30:40;;;;;;;0.90;0.50;;;;;;;;;;10357644;28;20242;-77
2023/05/29 17:35:41;;;;;;;1.45;0.60;;;;;;;;;;10338305;28;20843;-78
2023/05/29 17:40:43;;;;;;;2.22;0.60;;;;;;;;;;10348331;28;20249;-76
2023/05/29 17:45:45;;;;;;;2.25;0.50;;;;;;;;;;10329926;28;21989;-75
2023/05/29 17:50:47;;;;;;;4.03;0.60;;;;;;;;;;10350123;28;20214;-75
2023/05/29 17:55:48;;;;;;;3.13;0.52;;;;;;;;;;10359697;28;20227;-77
2023/05/29 18:00:49;;;;;;;1.48;0.43;;;;;;;;;;10325815;28;20219;-75
2023/05/29 18:05:50;;;;;;;1.17;0.55;;;;;;;;;;10360391;28;20215;-78
2023/05/29 18:10:51;;;;;;;2.25;0.47;;;;;;;;;;10347152;28;20534;-75
2023/05/29 18:15:52;;;;;;;0.82;0.60;;;;;;;;;;10332674;28;20346;-75
2023/05/29 18:20:53;;;;;;;0.75;0.55;;;;;;;;;;10349787;28;20266;-77
2023/05/29 18:25:54;;;;;;;1.73;0.60;;;;;;;;;;10362146;28;20223;-78
2023/05/29 18:30:55;;;;;;;0.40;0.40;;;;;;;;;;10358613;28;20221;-76
2023/05/29 18:35:56;;;;;;;0.73;0.60;;;;;;;;;;10354211;28;20227;-81
2023/05/29 18:40:57;;;;;;;2.25;0.70;;;;;;;;;;10355613;28;20313;-76
2023/05/29 18:45:59;;;;;;;3.47;0.63;;;;;;;;;;10360476;28;20224;-76
2023/05/29 18:51:01;;;;;;;2.97;0.68;;;;;;;;;;10328228;28;20885;-78
2023/05/29 18:56:02;;;;;;;3.08;0.70;;;;;;;;;;10358542;28;20211;-77
2023/05/29 19:01:05;;;;;;;2.70;1.00;;;;;;;;;;10345347;28;20273;-80
2023/05/29 19:06:06;;;;;;;1.85;0.73;;;;;;;;;;10355058;28;20220;-76
2023/05/29 19:11:09;;;;;;;2.00;0.70;;;;;;;;;;10361902;28;20590;-76
2023/05/29 19:16:11;;;;;;;0.70;0.70;;;;;;;;;;10356596;28;20231;-77
2023/05/29 19:21:12;;;;;;;0.73;0.65;;;;;;;;;;10339306;28;20293;-77
2023/05/29 19:26:13;;;;;;;0.73;0.70;;;;;;;;;;10361855;28;22388;-78
2023/05/29 19:31:15;;;;;;;0.60;0.60;;;;;;;;;;10333412;28;20215;-78
2023/05/29 19:36:16;;;;;;;0.73;0.73;;;;;;;;;;10354012;28;20227;-78
2023/05/29 19:41:17;;;;;;;1.40;0.55;;;;;;;;;;10359294;28;20266;-77
2023/05/29 19:46:18;;;;;;;2.50;0.88;;;;;;;;;;10358726;28;21115;-76
2023/05/29 19:51:19;;;;;;;1.60;0.60;;;;;;;;;;10359844;28;20265;-77
2023/05/29 19:56:22;;;;;;;1.42;0.70;;;;;;;;;;10358132;28;20227;-78
2023/05/29 20:01:23;;;;;;;1.13;0.60;;;;;;;;;;10352925;28;20271;-80
2023/05/29 20:06:29;;;;;;;1.20;0.90;;;;;;;;;;10314644;28;20222;-78
2023/05/29 20:11:30;;;;;;;1.55;0.60;;;;;;;;;;10364605;28;20212;-78
2023/05/29 20:16:31;;;;;;;3.00;0.80;;;;;;;;;;10356443;28;20277;-75
2023/05/29 20:21:33;;;;;;;0.82;0.60;;;;;;;;;;10361003;28;20274;-77
2023/05/29 20:26:34;;;;;;;0.85;0.57;;;;;;;;;;10371290;28;20221;-79
2023/05/29 20:31:35;;;;;;;2.15;0.88;;;;;;;;;;10372057;28;20215;-77
2023/05/29 20:36:36;;;;;;;1.15;0.70;;;;;;;;;;10344290;28;20238;-77
2023/05/29 20:41:39;;;;;;;0.63;0.60;;;;;;;;;;10373488;28;20933;-77
2023/05/29 20:46:40;;;;;;;2.17;0.40;;;;;;;;;;10349899;28;20351;-78
2023/05/29 20:51:41;;;;;;;0.88;0.50;;;;;;;;;;10370390;28;20250;-77
2023/05/29 20:56:42;;;;;;;1.88;0.60;;;;;;;;;;10345097;28;20239;-77
2023/05/29 21:01:43;;;;;;;0.50;0.50;;;;;;;;;;10364740;28;20215;-79
2023/05/29 21:06:45;;;;;;;0.70;0.60;;;;;;;;;;10349929;28;20638;-78
2023/05/29 21:11:46;;;;;;;1.23;0.47;;;;;;;;;;10375229;28;20240;-76
2023/05/29 21:16:47;;;;;;;2.55;0.75;;;;;;;;;;10367172;28;20241;-78
2023/05/29 21:21:48;;;;;;;2.90;0.47;;;;;;;;;;10363250;28;20219;-80
2023/05/29 21:26:49;;;;;;;0.95;0.70;;;;;;;;;;10339573;28;20296;-77
2023/05/29 21:31:50;;;;;;;2.42;0.80;;;;;;;;;;10371733;28;20277;-77
2023/05/29 21:36:51;;;;;;;1.30;0.60;;;;;;;;;;10345947;28;20240;-77
2023/05/29 21:41:53;;;;;;;0.77;0.50;;;;;;;;;;10366773;28;20303;-79
2023/05/29 21:46:54;;;;;;;2.15;0.50;;;;;;;;;;10363212;28;20309;-77
2023/05/29 21:51:55;;;;;;;0.50;0.50;;;;;;;;;;10351528;28;20223;-77
2023/05/29 21:56:56;;;;;;;1.92;0.50;;;;;;;;;;10344772;28;20253;-77
2023/05/29 22:01:58;;;;;;;0.80;0.60;;;;;;;;;;10347423;28;21854;-75
2023/05/29 22:06:59;;;;;;;0.55;0.43;;;;;;;;;;10363273;28;20216;-77
2023/05/29 22:12:01;;;;;;;5.05;0.73;;;;;;;;;;10351936;28;20246;-76
2023/05/29 22:17:02;;;;;;;0.65;0.50;;;;;;;;;;10378104;28;20308;-78
2023/05/29 22:22:03;;;;;;;1.75;0.70;;;;;;;;;;10366563;28;20226;-78
2023/05/29 22:27:05;;;;;;;2.65;0.65;;;;;;;;;;10375064;28;20779;-76
2023/05/29 22:32:07;;;;;;;1.10;0.40;;;;;;;;;;10362524;28;20211;-74
2023/05/29 22:37:08;;;;;;;0.65;0.50;;;;;;;;;;10373484;28;20731;-75
2023/05/29 22:42:09;;;;;;;0.85;0.47;;;;;;;;;;10365801;28;20216;-74
2023/05/29 22:47:10;;;;;;;1.42;0.70;;;;;;;;;;10338748;28;20226;-80
2023/05/29 22:52:12;;;;;;;0.43;0.30;;;;;;;;;;10330965;28;20212;-77
2023/05/29 22:57:13;;;;;;;0.98;0.60;;;;;;;;;;10374298;28;20223;-77
2023/05/29 23:02:14;;;;;;;0.60;0.40;;;;;;;;;;10361747;28;20222;-75
2023/05/29 23:07:15;;;;;;;0.30;0.30;;;;;;;;;;10370647;28;20215;-75
2023/05/29 23:12:16;;;;;;;0.43;0.40;;;;;;;;;;10366082;28;20223;-75
2023/05/29 23:17:18;;;;;;;0.35;0.35;;;;;;;;;;10371394;28;20223;-73
2023/05/29 23:22:19;;;;;;;0.43;0.43;;;;;;;;;;10361841;28;20211;-76
2023/05/29 23:27:20;;;;;;;1.05;0.65;;;;;;;;;;10363683;28;21068;-76
2023/05/29 23:32:21;;;;;;;0.55;0.50;;;;;;;;;;10374110;28;20619;-75
2023/05/29 23:37:24;;;;;;;5.28;0.63;;;;;;;;;;10315383;28;20232;-76
2023/05/29 23:42:25;;;;;;;1.88;0.45;;;;;;;;;;10375160;28;20245;-76
2023/05/29 23:47:26;;;;;;;1.15;0.40;;;;;;;;;;10349240;28;20227;-75
2023/05/29 23:52:27;;;;;;;0.40;0.40;;;;;;;;;;10366227;28;20734;-78
2023/05/29 23:57:28;;;;;;;0.30;0.30;;;;;;;;;;10340266;28;20219;-75
